sensor_id;sensor_type;location;lat;lon;timestamp;P1;durP1;ratioP1;P2;durP2;ratioP2
21848;SDS011;11089;49.852;19.700;2024-01-06T00:02:26;90.05;;;33.53;;
21848;SDS011;11089;49.852;19.700;2024-01-06T00:05:27;115.00;;;36.75;;
21848;SDS011;11089;49.852;19.700;2024-01-06T00:08:28;94.30;;;34.50;;
21848;SDS011;11089;49.852;19.700;2024-01-06T00:11:29;106.00;;;35.40;;
21848;SDS011;11089;49.852;19.700;2024-01-06T00:14:29;107.35;;;37.70;;
21848;SDS011;11089;49.852;19.700;2024-01-06T00:17:31;103.25;;;36.00;;
21848;SDS011;11089;49.852;19.700;2024-01-06T00:20:33;98.05;;;35.65;;
21848;SDS011;11089;49.852;19.700;2024-01-06T00:23:34;92.43;;;33.40;;
21848;SDS011;11089;49.852;19.700;2024-01-06T00:26:35;105.68;;;35.80;;
21848;SDS011;11089;49.852;19.700;2024-01-06T00:29:36;101.78;;;34.20;;
21848;SDS011;11089;49.852;19.700;2024-01-06T00:32:38;100.57;;;36.72;;
21848;SDS011;11089;49.852;19.700;2024-01-06T00:35:39;90.55;;;33.58;;
21848;SDS011;11089;49.852;19.700;2024-01-06T00:38:40;133.10;;;38.45;;
21848;SDS011;11089;49.852;19.700;2024-01-06T00:41:41;93.78;;;34.60;;
21848;SDS011;11089;49.852;19.700;2024-01-06T00:44:42;95.13;;;34.60;;
21848;SDS011;11089;49.852;19.700;2024-01-06T00:47:45;88.63;;;33.88;;
21848;SDS011;11089;49.852;19.700;2024-01-06T00:50:46;117.05;;;37.55;;
21848;SDS011;11089;49.852;19.700;2024-01-06T00:53:47;94.68;;;35.05;;
21848;SDS011;11089;49.852;19.700;2024-01-06T00:56:48;103.47;;;37.15;;
21848;SDS011;11089;49.852;19.700;2024-01-06T00:59:49;117.93;;;37.80;;
21848;SDS011;11089;49.852;19.700;2024-01-06T01:02:51;99.93;;;36.22;;
21848;SDS011;11089;49.852;19.700;2024-01-06T01:05:51;106.28;;;37.08;;
21848;SDS011;11089;49.852;19.700;2024-01-06T01:08:52;95.28;;;34.22;;
21848;SDS011;11089;49.852;19.700;2024-01-06T01:11:53;95.63;;;36.15;;
21848;SDS011;11089;49.852;19.700;2024-01-06T01:14:54;96.88;;;35.13;;
21848;SDS011;11089;49.852;19.700;2024-01-06T01:17:55;103.63;;;36.90;;
21848;SDS011;11089;49.852;19.700;2024-01-06T01:20:56;96.95;;;36.25;;
21848;SDS011;11089;49.852;19.700;2024-01-06T01:23:56;102.82;;;37.92;;
21848;SDS011;11089;49.852;19.700;2024-01-06T01:26:57;107.20;;;37.08;;
21848;SDS011;11089;49.852;19.700;2024-01-06T01:29:58;110.25;;;39.53;;
21848;SDS011;11089;49.852;19.700;2024-01-06T01:32:59;93.05;;;35.15;;
21848;SDS011;11089;49.852;19.700;2024-01-06T01:36:00;96.30;;;36.08;;
21848;SDS011;11089;49.852;19.700;2024-01-06T01:39:01;89.28;;;33.75;;
21848;SDS011;11089;49.852;19.700;2024-01-06T01:42:02;99.90;;;36.15;;
21848;SDS011;11089;49.852;19.700;2024-01-06T01:45:04;96.78;;;35.15;;
21848;SDS011;11089;49.852;19.700;2024-01-06T01:48:05;91.65;;;32.97;;
21848;SDS011;11089;49.852;19.700;2024-01-06T01:51:07;89.55;;;35.33;;
21848;SDS011;11089;49.852;19.700;2024-01-06T01:54:09;88.90;;;34.88;;
21848;SDS011;11089;49.852;19.700;2024-01-06T01:57:11;82.28;;;31.58;;
21848;SDS011;11089;49.852;19.700;2024-01-06T02:00:14;90.80;;;33.60;;
21848;SDS011;11089;49.852;19.700;2024-01-06T02:03:15;94.90;;;34.25;;
21848;SDS011;11089;49.852;19.700;2024-01-06T02:06:16;88.53;;;32.97;;
21848;SDS011;11089;49.852;19.700;2024-01-06T02:09:17;82.53;;;32.53;;
21848;SDS011;11089;49.852;19.700;2024-01-06T02:12:19;79.80;;;31.98;;
21848;SDS011;11089;49.852;19.700;2024-01-06T02:15:20;97.68;;;34.20;;
21848;SDS011;11089;49.852;19.700;2024-01-06T02:18:21;78.75;;;31.23;;
21848;SDS011;11089;49.852;19.700;2024-01-06T02:21:23;84.07;;;32.40;;
21848;SDS011;11089;49.852;19.700;2024-01-06T02:24:24;84.07;;;34.05;;
21848;SDS011;11089;49.852;19.700;2024-01-06T02:27:25;81.30;;;31.42;;
21848;SDS011;11089;49.852;19.700;2024-01-06T02:30:26;85.32;;;32.95;;
21848;SDS011;11089;49.852;19.700;2024-01-06T02:33:27;79.32;;;32.15;;
21848;SDS011;11089;49.852;19.700;2024-01-06T02:36:28;77.10;;;31.60;;
21848;SDS011;11089;49.852;19.700;2024-01-06T02:39:29;80.22;;;32.75;;
21848;SDS011;11089;49.852;19.700;2024-01-06T02:42:30;73.85;;;30.88;;
21848;SDS011;11089;49.852;19.700;2024-01-06T02:45:31;83.60;;;33.28;;
21848;SDS011;11089;49.852;19.700;2024-01-06T02:48:31;75.28;;;31.00;;
21848;SDS011;11089;49.852;19.700;2024-01-06T02:51:33;79.60;;;31.52;;
21848;SDS011;11089;49.852;19.700;2024-01-06T02:54:34;74.35;;;28.83;;
21848;SDS011;11089;49.852;19.700;2024-01-06T02:57:35;68.60;;;30.55;;
21848;SDS011;11089;49.852;19.700;2024-01-06T03:00:36;85.50;;;32.38;;
21848;SDS011;11089;49.852;19.700;2024-01-06T03:03:37;77.57;;;32.00;;
21848;SDS011;11089;49.852;19.700;2024-01-06T03:06:38;71.07;;;29.13;;
21848;SDS011;11089;49.852;19.700;2024-01-06T03:09:39;76.50;;;30.63;;
21848;SDS011;11089;49.852;19.700;2024-01-06T03:12:40;68.57;;;29.08;;
21848;SDS011;11089;49.852;19.700;2024-01-06T03:15:41;82.78;;;33.83;;
21848;SDS011;11089;49.852;19.700;2024-01-06T03:18:42;95.95;;;35.88;;
21848;SDS011;11089;49.852;19.700;2024-01-06T03:21:43;88.38;;;34.78;;
21848;SDS011;11089;49.852;19.700;2024-01-06T03:24:44;88.15;;;33.42;;
21848;SDS011;11089;49.852;19.700;2024-01-06T03:27:44;87.07;;;35.22;;
21848;SDS011;11089;49.852;19.700;2024-01-06T03:30:45;93.68;;;35.88;;
21848;SDS011;11089;49.852;19.700;2024-01-06T03:33:46;92.88;;;36.22;;
21848;SDS011;11089;49.852;19.700;2024-01-06T03:36:48;101.13;;;39.67;;
21848;SDS011;11089;49.852;19.700;2024-01-06T03:39:48;125.28;;;41.42;;
21848;SDS011;11089;49.852;19.700;2024-01-06T03:42:49;112.85;;;40.00;;
21848;SDS011;11089;49.852;19.700;2024-01-06T03:45:50;114.85;;;41.42;;
21848;SDS011;11089;49.852;19.700;2024-01-06T03:48:51;109.03;;;40.83;;
21848;SDS011;11089;49.852;19.700;2024-01-06T03:51:52;99.15;;;37.13;;
21848;SDS011;11089;49.852;19.700;2024-01-06T03:54:53;105.10;;;40.03;;
21848;SDS011;11089;49.852;19.700;2024-01-06T03:57:53;120.05;;;42.97;;
21848;SDS011;11089;49.852;19.700;2024-01-06T04:00:54;100.32;;;37.03;;
21848;SDS011;11089;49.852;19.700;2024-01-06T04:03:56;109.90;;;38.83;;
21848;SDS011;11089;49.852;19.700;2024-01-06T04:06:57;107.88;;;38.58;;
21848;SDS011;11089;49.852;19.700;2024-01-06T04:09:58;102.93;;;38.22;;
21848;SDS011;11089;49.852;19.700;2024-01-06T04:12:59;95.40;;;36.03;;
21848;SDS011;11089;49.852;19.700;2024-01-06T04:16:00;88.55;;;34.50;;
21848;SDS011;11089;49.852;19.700;2024-01-06T04:19:03;97.88;;;34.42;;
21848;SDS011;11089;49.852;19.700;2024-01-06T04:22:07;107.07;;;36.30;;
21848;SDS011;11089;49.852;19.700;2024-01-06T04:25:08;94.60;;;36.47;;
21848;SDS011;11089;49.852;19.700;2024-01-06T04:28:09;109.60;;;38.95;;
21848;SDS011;11089;49.852;19.700;2024-01-06T04:31:10;100.07;;;37.13;;
21848;SDS011;11089;49.852;19.700;2024-01-06T04:34:11;108.10;;;36.70;;
21848;SDS011;11089;49.852;19.700;2024-01-06T04:37:12;104.57;;;36.10;;
21848;SDS011;11089;49.852;19.700;2024-01-06T04:40:13;97.22;;;36.47;;
21848;SDS011;11089;49.852;19.700;2024-01-06T04:43:14;101.75;;;36.13;;
21848;SDS011;11089;49.852;19.700;2024-01-06T04:46:16;92.47;;;34.22;;
21848;SDS011;11089;49.852;19.700;2024-01-06T04:49:17;97.35;;;35.53;;
21848;SDS011;11089;49.852;19.700;2024-01-06T04:52:18;95.47;;;34.45;;
21848;SDS011;11089;49.852;19.700;2024-01-06T04:55:19;89.20;;;34.03;;
21848;SDS011;11089;49.852;19.700;2024-01-06T04:58:20;93.75;;;35.72;;
21848;SDS011;11089;49.852;19.700;2024-01-06T05:01:20;86.10;;;33.55;;
21848;SDS011;11089;49.852;19.700;2024-01-06T05:04:21;88.63;;;32.38;;
21848;SDS011;11089;49.852;19.700;2024-01-06T05:07:22;92.43;;;35.22;;
21848;SDS011;11089;49.852;19.700;2024-01-06T05:10:23;83.30;;;33.28;;
21848;SDS011;11089;49.852;19.700;2024-01-06T05:13:24;86.65;;;33.15;;
21848;SDS011;11089;49.852;19.700;2024-01-06T05:16:25;81.30;;;31.55;;
21848;SDS011;11089;49.852;19.700;2024-01-06T05:19:27;82.43;;;31.88;;
21848;SDS011;11089;49.852;19.700;2024-01-06T05:22:28;80.70;;;32.55;;
21848;SDS011;11089;49.852;19.700;2024-01-06T05:25:29;80.75;;;30.80;;
21848;SDS011;11089;49.852;19.700;2024-01-06T05:28:31;76.97;;;31.83;;
21848;SDS011;11089;49.852;19.700;2024-01-06T05:31:32;84.78;;;32.03;;
21848;SDS011;11089;49.852;19.700;2024-01-06T05:34:33;85.22;;;32.78;;
21848;SDS011;11089;49.852;19.700;2024-01-06T05:37:34;85.78;;;33.55;;
21848;SDS011;11089;49.852;19.700;2024-01-06T05:40:36;83.57;;;32.42;;
21848;SDS011;11089;49.852;19.700;2024-01-06T05:43:37;87.25;;;33.95;;
21848;SDS011;11089;49.852;19.700;2024-01-06T05:46:39;88.25;;;33.40;;
21848;SDS011;11089;49.852;19.700;2024-01-06T05:49:43;82.10;;;32.67;;
21848;SDS011;11089;49.852;19.700;2024-01-06T05:52:44;84.88;;;33.42;;
21848;SDS011;11089;49.852;19.700;2024-01-06T05:55:48;80.20;;;31.45;;
21848;SDS011;11089;49.852;19.700;2024-01-06T05:58:50;69.63;;;29.60;;
21848;SDS011;11089;49.852;19.700;2024-01-06T06:01:52;76.65;;;29.60;;
21848;SDS011;11089;49.852;19.700;2024-01-06T06:04:53;76.13;;;30.65;;
21848;SDS011;11089;49.852;19.700;2024-01-06T06:07:54;69.13;;;30.52;;
21848;SDS011;11089;49.852;19.700;2024-01-06T06:10:55;78.38;;;30.80;;
21848;SDS011;11089;49.852;19.700;2024-01-06T06:14:02;85.60;;;32.30;;
21848;SDS011;11089;49.852;19.700;2024-01-06T06:17:03;95.53;;;38.25;;
21848;SDS011;11089;49.852;19.700;2024-01-06T06:20:04;95.85;;;36.72;;
21848;SDS011;11089;49.852;19.700;2024-01-06T06:23:06;77.70;;;34.38;;
21848;SDS011;11089;49.852;19.700;2024-01-06T06:26:08;90.78;;;34.72;;
21848;SDS011;11089;49.852;19.700;2024-01-06T06:29:09;100.45;;;39.40;;
21848;SDS011;11089;49.852;19.700;2024-01-06T06:32:10;91.30;;;36.75;;
21848;SDS011;11089;49.852;19.700;2024-01-06T06:35:11;96.53;;;39.67;;
21848;SDS011;11089;49.852;19.700;2024-01-06T06:38:12;97.88;;;40.85;;
21848;SDS011;11089;49.852;19.700;2024-01-06T06:41:14;98.25;;;39.33;;
21848;SDS011;11089;49.852;19.700;2024-01-06T06:44:16;99.68;;;38.05;;
21848;SDS011;11089;49.852;19.700;2024-01-06T06:47:17;85.88;;;36.58;;
21848;SDS011;11089;49.852;19.700;2024-01-06T06:50:19;102.80;;;37.08;;
21848;SDS011;11089;49.852;19.700;2024-01-06T06:53:23;94.80;;;38.30;;
21848;SDS011;11089;49.852;19.700;2024-01-06T06:56:25;88.47;;;35.33;;
21848;SDS011;11089;49.852;19.700;2024-01-06T06:59:26;93.38;;;37.83;;
21848;SDS011;11089;49.852;19.700;2024-01-06T07:02:27;90.55;;;36.55;;
21848;SDS011;11089;49.852;19.700;2024-01-06T07:05:28;90.93;;;39.58;;
21848;SDS011;11089;49.852;19.700;2024-01-06T07:08:29;85.60;;;35.97;;
21848;SDS011;11089;49.852;19.700;2024-01-06T07:11:30;83.22;;;33.78;;
21848;SDS011;11089;49.852;19.700;2024-01-06T07:14:31;97.18;;;39.35;;
21848;SDS011;11089;49.852;19.700;2024-01-06T07:17:32;113.70;;;46.42;;
21848;SDS011;11089;49.852;19.700;2024-01-06T07:20:33;115.88;;;48.50;;
21848;SDS011;11089;49.852;19.700;2024-01-06T07:23:34;145.98;;;58.05;;
21848;SDS011;11089;49.852;19.700;2024-01-06T07:26:35;141.13;;;58.40;;
21848;SDS011;11089;49.852;19.700;2024-01-06T07:29:36;115.13;;;49.05;;
21848;SDS011;11089;49.852;19.700;2024-01-06T07:32:38;112.15;;;47.53;;
21848;SDS011;11089;49.852;19.700;2024-01-06T07:35:40;104.35;;;43.35;;
21848;SDS011;11089;49.852;19.700;2024-01-06T07:38:43;103.65;;;42.92;;
21848;SDS011;11089;49.852;19.700;2024-01-06T07:41:46;113.75;;;49.42;;
21848;SDS011;11089;49.852;19.700;2024-01-06T07:44:47;107.82;;;46.42;;
21848;SDS011;11089;49.852;19.700;2024-01-06T07:47:48;117.55;;;46.80;;
21848;SDS011;11089;49.852;19.700;2024-01-06T07:50:49;97.30;;;43.75;;
21848;SDS011;11089;49.852;19.700;2024-01-06T07:53:50;113.07;;;45.75;;
21848;SDS011;11089;49.852;19.700;2024-01-06T07:56:51;117.82;;;47.65;;
21848;SDS011;11089;49.852;19.700;2024-01-06T07:59:51;103.80;;;43.92;;
21848;SDS011;11089;49.852;19.700;2024-01-06T08:02:52;121.50;;;47.33;;
21848;SDS011;11089;49.852;19.700;2024-01-06T08:05:53;111.57;;;47.10;;
21848;SDS011;11089;49.852;19.700;2024-01-06T08:08:54;114.75;;;45.72;;
21848;SDS011;11089;49.852;19.700;2024-01-06T08:11:55;111.93;;;45.10;;
21848;SDS011;11089;49.852;19.700;2024-01-06T08:14:56;93.43;;;39.97;;
21848;SDS011;11089;49.852;19.700;2024-01-06T08:17:57;82.65;;;33.60;;
21848;SDS011;11089;49.852;19.700;2024-01-06T08:20:58;71.57;;;30.27;;
21848;SDS011;11089;49.852;19.700;2024-01-06T08:23:59;70.22;;;30.02;;
21848;SDS011;11089;49.852;19.700;2024-01-06T08:27:00;80.47;;;34.72;;
21848;SDS011;11089;49.852;19.700;2024-01-06T08:30:01;93.85;;;40.95;;
21848;SDS011;11089;49.852;19.700;2024-01-06T08:33:02;81.38;;;34.20;;
21848;SDS011;11089;49.852;19.700;2024-01-06T08:36:04;79.88;;;32.80;;
21848;SDS011;11089;49.852;19.700;2024-01-06T08:39:06;68.10;;;30.42;;
21848;SDS011;11089;49.852;19.700;2024-01-06T08:42:08;70.05;;;30.35;;
21848;SDS011;11089;49.852;19.700;2024-01-06T08:45:10;69.20;;;30.00;;
21848;SDS011;11089;49.852;19.700;2024-01-06T08:48:11;72.38;;;30.50;;
21848;SDS011;11089;49.852;19.700;2024-01-06T08:51:13;63.47;;;28.88;;
21848;SDS011;11089;49.852;19.700;2024-01-06T08:54:14;71.43;;;31.30;;
21848;SDS011;11089;49.852;19.700;2024-01-06T08:57:15;69.03;;;30.15;;
21848;SDS011;11089;49.852;19.700;2024-01-06T09:00:16;65.38;;;28.10;;
21848;SDS011;11089;49.852;19.700;2024-01-06T09:03:18;71.47;;;31.60;;
21848;SDS011;11089;49.852;19.700;2024-01-06T09:06:21;71.50;;;32.70;;
21848;SDS011;11089;49.852;19.700;2024-01-06T09:09:22;66.53;;;29.10;;
21848;SDS011;11089;49.852;19.700;2024-01-06T09:12:23;68.68;;;29.77;;
21848;SDS011;11089;49.852;19.700;2024-01-06T09:15:24;69.05;;;29.70;;
21848;SDS011;11089;49.852;19.700;2024-01-06T09:18:25;65.50;;;29.02;;
21848;SDS011;11089;49.852;19.700;2024-01-06T09:21:26;66.88;;;28.80;;
21848;SDS011;11089;49.852;19.700;2024-01-06T09:24:27;65.63;;;27.83;;
21848;SDS011;11089;49.852;19.700;2024-01-06T09:27:28;69.30;;;28.42;;
21848;SDS011;11089;49.852;19.700;2024-01-06T09:30:29;67.28;;;29.23;;
21848;SDS011;11089;49.852;19.700;2024-01-06T09:33:30;65.30;;;28.95;;
21848;SDS011;11089;49.852;19.700;2024-01-06T09:36:34;67.63;;;28.27;;
21848;SDS011;11089;49.852;19.700;2024-01-06T09:39:35;68.78;;;28.55;;
21848;SDS011;11089;49.852;19.700;2024-01-06T09:42:36;72.90;;;30.63;;
21848;SDS011;11089;49.852;19.700;2024-01-06T09:45:40;63.80;;;28.63;;
21848;SDS011;11089;49.852;19.700;2024-01-06T09:48:41;64.38;;;29.90;;
21848;SDS011;11089;49.852;19.700;2024-01-06T09:51:44;65.55;;;29.42;;
21848;SDS011;11089;49.852;19.700;2024-01-06T09:54:53;65.78;;;28.92;;
21848;SDS011;11089;49.852;19.700;2024-01-06T09:57:55;64.32;;;28.40;;
21848;SDS011;11089;49.852;19.700;2024-01-06T10:00:56;66.65;;;27.63;;
21848;SDS011;11089;49.852;19.700;2024-01-06T10:03:57;68.15;;;30.98;;
21848;SDS011;11089;49.852;19.700;2024-01-06T10:06:57;63.22;;;29.00;;
21848;SDS011;11089;49.852;19.700;2024-01-06T10:09:58;67.10;;;28.38;;
21848;SDS011;11089;49.852;19.700;2024-01-06T10:12:59;66.50;;;30.30;;
21848;SDS011;11089;49.852;19.700;2024-01-06T10:16:00;67.55;;;28.30;;
21848;SDS011;11089;49.852;19.700;2024-01-06T10:19:01;61.63;;;27.80;;
21848;SDS011;11089;49.852;19.700;2024-01-06T10:22:03;66.93;;;28.88;;
21848;SDS011;11089;49.852;19.700;2024-01-06T10:25:05;61.35;;;27.75;;
21848;SDS011;11089;49.852;19.700;2024-01-06T10:28:11;58.83;;;26.05;;
21848;SDS011;11089;49.852;19.700;2024-01-06T10:31:13;60.55;;;28.77;;
21848;SDS011;11089;49.852;19.700;2024-01-06T10:34:14;64.00;;;28.10;;
21848;SDS011;11089;49.852;19.700;2024-01-06T10:37:16;54.38;;;26.27;;
21848;SDS011;11089;49.852;19.700;2024-01-06T10:40:17;59.75;;;26.95;;
21848;SDS011;11089;49.852;19.700;2024-01-06T10:43:18;55.83;;;26.98;;
21848;SDS011;11089;49.852;19.700;2024-01-06T10:46:22;57.78;;;26.30;;
21848;SDS011;11089;49.852;19.700;2024-01-06T10:49:24;56.22;;;25.88;;
21848;SDS011;11089;49.852;19.700;2024-01-06T10:52:30;55.03;;;24.13;;
21848;SDS011;11089;49.852;19.700;2024-01-06T10:55:31;52.45;;;23.25;;
21848;SDS011;11089;49.852;19.700;2024-01-06T10:58:33;51.60;;;24.38;;
21848;SDS011;11089;49.852;19.700;2024-01-06T11:01:42;52.05;;;23.35;;
21848;SDS011;11089;49.852;19.700;2024-01-06T11:04:46;50.55;;;24.27;;
21848;SDS011;11089;49.852;19.700;2024-01-06T11:07:48;45.00;;;22.02;;
21848;SDS011;11089;49.852;19.700;2024-01-06T11:10:52;49.88;;;23.38;;
21848;SDS011;11089;49.852;19.700;2024-01-06T11:14:15;47.90;;;21.75;;
21848;SDS011;11089;49.852;19.700;2024-01-06T11:24:20;47.90;;;23.27;;
21848;SDS011;11089;49.852;19.700;2024-01-06T11:27:27;55.47;;;23.92;;
21848;SDS011;11089;49.852;19.700;2024-01-06T11:30:28;54.83;;;24.27;;
21848;SDS011;11089;49.852;19.700;2024-01-06T11:33:29;50.25;;;23.10;;
21848;SDS011;11089;49.852;19.700;2024-01-06T11:36:30;43.95;;;21.98;;
21848;SDS011;11089;49.852;19.700;2024-01-06T11:42:43;44.65;;;22.88;;
21848;SDS011;11089;49.852;19.700;2024-01-06T11:45:46;46.40;;;22.02;;
21848;SDS011;11089;49.852;19.700;2024-01-06T11:48:47;44.30;;;22.00;;
21848;SDS011;11089;49.852;19.700;2024-01-06T11:51:52;47.63;;;21.92;;
21848;SDS011;11089;49.852;19.700;2024-01-06T11:54:54;44.60;;;21.30;;
21848;SDS011;11089;49.852;19.700;2024-01-06T11:57:55;48.10;;;22.00;;
21848;SDS011;11089;49.852;19.700;2024-01-06T12:00:57;48.22;;;21.83;;
21848;SDS011;11089;49.852;19.700;2024-01-06T12:03:58;47.00;;;21.35;;
21848;SDS011;11089;49.852;19.700;2024-01-06T12:07:08;46.17;;;21.77;;
21848;SDS011;11089;49.852;19.700;2024-01-06T12:10:09;43.70;;;21.13;;
21848;SDS011;11089;49.852;19.700;2024-01-06T12:13:11;43.67;;;20.05;;
21848;SDS011;11089;49.852;19.700;2024-01-06T12:16:12;50.17;;;24.33;;
21848;SDS011;11089;49.852;19.700;2024-01-06T12:19:13;43.50;;;21.45;;
21848;SDS011;11089;49.852;19.700;2024-01-06T12:22:14;41.95;;;19.35;;
21848;SDS011;11089;49.852;19.700;2024-01-06T12:25:16;39.65;;;19.70;;
21848;SDS011;11089;49.852;19.700;2024-01-06T12:28:17;40.88;;;19.05;;
21848;SDS011;11089;49.852;19.700;2024-01-06T12:31:17;39.25;;;17.75;;
21848;SDS011;11089;49.852;19.700;2024-01-06T12:34:20;39.53;;;17.45;;
21848;SDS011;11089;49.852;19.700;2024-01-06T12:37:22;42.88;;;19.17;;
21848;SDS011;11089;49.852;19.700;2024-01-06T12:40:24;39.45;;;18.25;;
21848;SDS011;11089;49.852;19.700;2024-01-06T12:43:26;39.92;;;19.08;;
21848;SDS011;11089;49.852;19.700;2024-01-06T12:46:27;39.50;;;18.55;;
21848;SDS011;11089;49.852;19.700;2024-01-06T12:49:28;36.60;;;16.83;;
21848;SDS011;11089;49.852;19.700;2024-01-06T12:52:29;38.88;;;18.98;;
21848;SDS011;11089;49.852;19.700;2024-01-06T12:55:30;38.40;;;17.23;;
21848;SDS011;11089;49.852;19.700;2024-01-06T12:58:31;37.58;;;18.17;;
21848;SDS011;11089;49.852;19.700;2024-01-06T13:01:33;38.70;;;19.23;;
21848;SDS011;11089;49.852;19.700;2024-01-06T13:04:34;34.90;;;16.60;;
21848;SDS011;11089;49.852;19.700;2024-01-06T13:07:35;35.58;;;16.83;;
21848;SDS011;11089;49.852;19.700;2024-01-06T13:10:36;35.15;;;17.67;;
21848;SDS011;11089;49.852;19.700;2024-01-06T13:13:37;36.00;;;16.40;;
21848;SDS011;11089;49.852;19.700;2024-01-06T13:16:38;38.53;;;17.85;;
21848;SDS011;11089;49.852;19.700;2024-01-06T13:19:39;38.75;;;18.02;;
21848;SDS011;11089;49.852;19.700;2024-01-06T13:22:40;36.45;;;18.90;;
21848;SDS011;11089;49.852;19.700;2024-01-06T13:25:41;33.50;;;17.27;;
21848;SDS011;11089;49.852;19.700;2024-01-06T13:28:42;36.13;;;17.63;;
21848;SDS011;11089;49.852;19.700;2024-01-06T13:31:42;35.03;;;17.05;;
21848;SDS011;11089;49.852;19.700;2024-01-06T13:34:44;38.03;;;17.38;;
21848;SDS011;11089;49.852;19.700;2024-01-06T13:37:45;35.28;;;18.08;;
21848;SDS011;11089;49.852;19.700;2024-01-06T13:40:48;34.70;;;17.48;;
21848;SDS011;11089;49.852;19.700;2024-01-06T13:43:49;33.75;;;17.23;;
21848;SDS011;11089;49.852;19.700;2024-01-06T13:46:50;38.45;;;17.70;;
21848;SDS011;11089;49.852;19.700;2024-01-06T13:49:51;38.90;;;18.00;;
21848;SDS011;11089;49.852;19.700;2024-01-06T13:52:55;40.72;;;18.88;;
21848;SDS011;11089;49.852;19.700;2024-01-06T13:55:56;40.53;;;18.80;;
21848;SDS011;11089;49.852;19.700;2024-01-06T13:58:57;38.25;;;18.55;;
21848;SDS011;11089;49.852;19.700;2024-01-06T14:01:57;44.97;;;19.88;;
21848;SDS011;11089;49.852;19.700;2024-01-06T14:04:59;42.95;;;21.00;;
21848;SDS011;11089;49.852;19.700;2024-01-06T14:08:00;42.95;;;20.17;;
21848;SDS011;11089;49.852;19.700;2024-01-06T14:11:01;43.20;;;20.75;;
21848;SDS011;11089;49.852;19.700;2024-01-06T14:14:02;40.45;;;18.88;;
21848;SDS011;11089;49.852;19.700;2024-01-06T14:17:03;43.00;;;20.77;;
21848;SDS011;11089;49.852;19.700;2024-01-06T14:20:05;39.78;;;18.88;;
21848;SDS011;11089;49.852;19.700;2024-01-06T14:23:11;39.90;;;19.67;;
21848;SDS011;11089;49.852;19.700;2024-01-06T14:26:12;40.33;;;20.02;;
21848;SDS011;11089;49.852;19.700;2024-01-06T14:29:13;40.42;;;19.35;;
21848;SDS011;11089;49.852;19.700;2024-01-06T14:32:16;37.47;;;18.15;;
21848;SDS011;11089;49.852;19.700;2024-01-06T14:35:17;39.15;;;18.10;;
21848;SDS011;11089;49.852;19.700;2024-01-06T14:38:18;38.92;;;18.42;;
21848;SDS011;11089;49.852;19.700;2024-01-06T14:41:19;39.50;;;17.90;;
21848;SDS011;11089;49.852;19.700;2024-01-06T14:44:20;42.63;;;19.98;;
21848;SDS011;11089;49.852;19.700;2024-01-06T14:47:21;41.53;;;19.30;;
21848;SDS011;11089;49.852;19.700;2024-01-06T14:50:23;42.55;;;19.52;;
21848;SDS011;11089;49.852;19.700;2024-01-06T14:53:24;42.97;;;19.88;;
21848;SDS011;11089;49.852;19.700;2024-01-06T14:56:25;40.28;;;19.85;;
21848;SDS011;11089;49.852;19.700;2024-01-06T14:59:26;39.90;;;18.83;;
21848;SDS011;11089;49.852;19.700;2024-01-06T15:02:27;38.90;;;18.55;;
21848;SDS011;11089;49.852;19.700;2024-01-06T15:05:28;42.42;;;18.95;;
21848;SDS011;11089;49.852;19.700;2024-01-06T15:08:30;34.65;;;17.92;;
21848;SDS011;11089;49.852;19.700;2024-01-06T15:11:31;35.38;;;17.42;;
21848;SDS011;11089;49.852;19.700;2024-01-06T15:14:32;34.08;;;16.10;;
21848;SDS011;11089;49.852;19.700;2024-01-06T15:17:34;39.38;;;17.98;;
21848;SDS011;11089;49.852;19.700;2024-01-06T15:20:37;36.85;;;16.95;;
21848;SDS011;11089;49.852;19.700;2024-01-06T15:23:38;36.25;;;17.35;;
21848;SDS011;11089;49.852;19.700;2024-01-06T15:26:40;35.08;;;17.33;;
21848;SDS011;11089;49.852;19.700;2024-01-06T15:29:41;32.80;;;15.95;;
21848;SDS011;11089;49.852;19.700;2024-01-06T15:32:42;35.80;;;16.52;;
21848;SDS011;11089;49.852;19.700;2024-01-06T15:35:43;33.67;;;15.30;;
21848;SDS011;11089;49.852;19.700;2024-01-06T15:38:44;35.10;;;16.65;;
21848;SDS011;11089;49.852;19.700;2024-01-06T15:41:45;36.83;;;16.33;;
21848;SDS011;11089;49.852;19.700;2024-01-06T15:44:46;34.67;;;16.40;;
21848;SDS011;11089;49.852;19.700;2024-01-06T15:47:47;36.85;;;17.17;;
21848;SDS011;11089;49.852;19.700;2024-01-06T15:50:48;32.63;;;16.52;;
21848;SDS011;11089;49.852;19.700;2024-01-06T15:53:50;35.95;;;16.05;;
21848;SDS011;11089;49.852;19.700;2024-01-06T15:56:51;35.08;;;16.92;;
21848;SDS011;11089;49.852;19.700;2024-01-06T15:59:52;37.45;;;18.13;;
21848;SDS011;11089;49.852;19.700;2024-01-06T16:02:54;36.55;;;17.55;;
21848;SDS011;11089;49.852;19.700;2024-01-06T16:05:55;37.85;;;17.75;;
21848;SDS011;11089;49.852;19.700;2024-01-06T16:08:56;36.72;;;17.60;;
21848;SDS011;11089;49.852;19.700;2024-01-06T16:11:58;41.35;;;19.05;;
21848;SDS011;11089;49.852;19.700;2024-01-06T16:14:59;34.45;;;16.10;;
21848;SDS011;11089;49.852;19.700;2024-01-06T16:18:00;34.85;;;15.48;;
21848;SDS011;11089;49.852;19.700;2024-01-06T16:21:00;36.70;;;16.20;;
21848;SDS011;11089;49.852;19.700;2024-01-06T16:24:02;32.35;;;15.50;;
21848;SDS011;11089;49.852;19.700;2024-01-06T16:27:03;34.88;;;15.13;;
21848;SDS011;11089;49.852;19.700;2024-01-06T16:30:05;31.80;;;15.50;;
21848;SDS011;11089;49.852;19.700;2024-01-06T16:33:07;34.30;;;15.98;;
21848;SDS011;11089;49.852;19.700;2024-01-06T16:36:09;36.08;;;16.02;;
21848;SDS011;11089;49.852;19.700;2024-01-06T16:39:12;33.90;;;15.27;;
21848;SDS011;11089;49.852;19.700;2024-01-06T16:42:14;29.48;;;14.13;;
21848;SDS011;11089;49.852;19.700;2024-01-06T16:45:15;29.67;;;13.70;;
21848;SDS011;11089;49.852;19.700;2024-01-06T16:48:15;27.00;;;13.60;;
21848;SDS011;11089;49.852;19.700;2024-01-06T16:51:16;28.33;;;13.68;;
21848;SDS011;11089;49.852;19.700;2024-01-06T16:54:17;27.80;;;12.95;;
21848;SDS011;11089;49.852;19.700;2024-01-06T16:57:18;24.90;;;11.73;;
21848;SDS011;11089;49.852;19.700;2024-01-06T17:00:20;27.48;;;13.18;;
21848;SDS011;11089;49.852;19.700;2024-01-06T17:03:22;27.77;;;12.13;;
21848;SDS011;11089;49.852;19.700;2024-01-06T17:06:23;25.15;;;12.55;;
21848;SDS011;11089;49.852;19.700;2024-01-06T17:09:24;24.30;;;11.70;;
21848;SDS011;11089;49.852;19.700;2024-01-06T17:12:25;24.08;;;11.20;;
21848;SDS011;11089;49.852;19.700;2024-01-06T17:15:26;23.23;;;12.15;;
21848;SDS011;11089;49.852;19.700;2024-01-06T17:18:28;25.75;;;11.65;;
21848;SDS011;11089;49.852;19.700;2024-01-06T17:21:29;20.42;;;11.23;;
21848;SDS011;11089;49.852;19.700;2024-01-06T17:24:30;22.25;;;10.52;;
21848;SDS011;11089;49.852;19.700;2024-01-06T17:27:32;20.00;;;11.02;;
21848;SDS011;11089;49.852;19.700;2024-01-06T17:30:33;21.88;;;10.77;;
21848;SDS011;11089;49.852;19.700;2024-01-06T17:33:37;17.85;;;9.57;;